Agreda, Spain
Current Conditions -  °F | °C
As of 12:00 AM on Sunday 23 Nov 2014 (Local Time) from LELO Reporting Station
Broken Clouds Broken Clouds  
Wind Chill: 57°   Ceiling: 2000
Heat Index: 57°   Visibility: 4mi
Dew Point: 55°   Wind: 10mph
Humidity: 94%   Direction: 60°ENE
Pressure: 29.97"   Gusts: NA
Location:  41.86°N, 1.92°W
Report Text: LELO 222300Z 06009KT 020V100 7000 FEW010 BKN020 14/13 Q1015
Loading
Personal Weather Stations






























Interactive Weather Map New forecast layout! Learn more

10-Day Weather Forecast

Advertisements
Track Severe Weather on mobile